createdAt,value
2022-11-07T00:00:56.938Z,5.00
2022-11-07T00:05:59.562Z,3.25
2022-11-07T00:11:03.009Z,4.00
2022-11-07T00:16:10.204Z,4.00
2022-11-07T00:21:12.824Z,4.00
2022-11-07T00:26:16.046Z,3.25
2022-11-07T00:31:20.423Z,4.00
2022-11-07T00:36:25.183Z,5.00
2022-11-07T00:41:28.948Z,3.00
2022-11-07T00:46:32.908Z,4.50
2022-11-07T00:51:35.565Z,4.00
2022-11-07T00:56:38.214Z,4.00
2022-11-07T01:01:42.301Z,4.00
2022-11-07T01:06:46.512Z,3.25
2022-11-07T01:11:51.066Z,4.00
2022-11-07T01:16:55.204Z,4.00
2022-11-07T01:21:57.837Z,3.00
2022-11-07T01:27:00.440Z,4.00
2022-11-07T01:32:04.697Z,3.50
2022-11-07T01:37:07.812Z,2.50
2022-11-07T01:42:11.545Z,4.00
2022-11-07T01:47:15.600Z,3.75
2022-11-07T01:52:22.255Z,3.00
2022-11-07T01:57:28.548Z,3.00
2022-11-07T02:02:35.782Z,3.00
2022-11-07T02:07:40.252Z,3.25
2022-11-07T02:12:43.714Z,4.50
2022-11-07T02:17:47.735Z,3.25
2022-11-07T02:22:54.979Z,3.25
2022-11-07T02:28:05.116Z,3.00
2022-11-07T02:33:18.356Z,3.00
2022-11-07T02:38:23.460Z,2.75
2022-11-07T02:43:30.160Z,2.50
2022-11-07T02:48:41.358Z,2.75
2022-11-07T02:53:44.348Z,3.00
2022-11-07T02:58:48.462Z,2.50
2022-11-07T03:03:52.346Z,2.00
2022-11-07T03:08:54.967Z,2.00
2022-11-07T03:13:59.722Z,4.00
2022-11-07T03:19:02.525Z,3.00
2022-11-07T03:24:05.704Z,3.75
2022-11-07T03:29:10.209Z,3.75
2022-11-07T03:34:12.860Z,2.25
2022-11-07T03:39:21.828Z,3.00
2022-11-07T03:44:29.704Z,3.00
2022-11-07T03:49:32.551Z,2.75
2022-11-07T03:54:35.300Z,3.25
2022-11-07T03:59:39.348Z,3.00
2022-11-07T04:04:42.058Z,3.00
2022-11-07T04:09:44.652Z,2.00
2022-11-07T04:15:06.573Z,3.00
2022-11-07T04:20:10.639Z,3.00
2022-11-07T04:25:13.289Z,2.75
2022-11-07T04:30:24.408Z,2.00
2022-11-07T04:35:29.066Z,3.50
2022-11-07T04:40:32.070Z,3.00
2022-11-07T04:45:36.655Z,2.00
2022-11-07T04:50:39.738Z,3.00
2022-11-07T04:55:42.827Z,2.00
2022-11-07T05:00:46.749Z,4.00
2022-11-07T05:05:49.510Z,2.50
2022-11-07T05:10:52.193Z,2.00
2022-11-07T05:15:56.279Z,2.50
2022-11-07T05:20:58.941Z,2.25
2022-11-07T05:26:01.810Z,2.50
2022-11-07T05:31:06.992Z,2.75
2022-11-07T05:36:11.317Z,2.00
2022-11-07T05:41:15.351Z,2.25
2022-11-07T05:46:19.287Z,2.00
2022-11-07T05:51:21.932Z,2.00
2022-11-07T05:56:24.479Z,3.00
2022-11-07T06:01:28.530Z,2.00
2022-11-07T06:06:31.852Z,2.00
2022-11-07T06:11:34.662Z,2.50
2022-11-07T06:16:38.763Z,2.00
2022-11-07T06:21:41.396Z,2.00
2022-11-07T06:26:44.004Z,2.00
2022-11-07T06:31:47.996Z,2.25
2022-11-07T06:37:01.564Z,2.00
2022-11-07T06:42:06.000Z,3.00
2022-11-07T06:47:10.013Z,1.75
2022-11-07T06:52:12.623Z,2.00
2022-11-07T06:57:15.232Z,2.00
2022-11-07T07:02:43.882Z,2.00
2022-11-07T07:07:41.769Z,2.00
2022-11-07T07:12:44.600Z,2.00
2022-11-07T07:17:48.552Z,2.00
2022-11-07T07:22:57.004Z,2.00
2022-11-07T07:28:00.639Z,2.00
2022-11-07T07:33:04.740Z,2.00
2022-11-07T07:38:07.368Z,2.00
2022-11-07T07:43:10.013Z,2.00
2022-11-07T07:48:14.021Z,2.00
2022-11-07T07:53:17.101Z,1.50
2022-11-07T07:58:19.913Z,1.00
2022-11-07T08:03:23.843Z,2.00
2022-11-07T08:08:26.918Z,2.00
2022-11-07T08:13:29.831Z,1.25
2022-11-07T08:18:36.510Z,2.00
2022-11-07T08:23:39.451Z,2.00
2022-11-07T08:28:42.140Z,1.00
2022-11-07T08:33:46.302Z,1.75
2022-11-07T08:38:48.933Z,1.00
2022-11-07T08:43:51.651Z,2.00
2022-11-07T08:48:55.602Z,2.50
2022-11-07T08:53:58.298Z,2.50
2022-11-07T08:59:01.345Z,2.75
2022-11-07T09:04:05.782Z,3.00
2022-11-07T09:09:14.017Z,2.00
2022-11-07T09:14:19.199Z,4.00
2022-11-07T09:19:23.136Z,1.75
2022-11-07T09:24:25.763Z,1.00
2022-11-07T09:29:28.446Z,1.00
2022-11-07T09:34:32.407Z,1.00
2022-11-07T09:39:35.290Z,1.00
2022-11-07T09:44:51.834Z,1.50
2022-11-07T09:50:00.222Z,1.00
2022-11-07T09:55:10.055Z,1.00
2022-11-07T10:00:17.060Z,1.00
2022-11-07T10:05:31.958Z,1.50
2022-11-07T10:10:43.295Z,2.00
2022-11-07T10:15:59.431Z,1.00
2022-11-07T10:21:36.445Z,1.00
2022-11-07T10:26:33.268Z,1.50
2022-11-07T10:31:41.166Z,1.00
2022-11-07T10:36:47.425Z,1.00
2022-11-07T10:42:00.214Z,1.75
2022-11-07T10:47:03.527Z,1.00
2022-11-07T10:52:15.807Z,2.00
2022-11-07T10:57:21.195Z,1.75
2022-11-07T11:02:25.253Z,1.50
2022-11-07T11:07:39.459Z,2.00
2022-11-07T11:12:46.897Z,2.00
2022-11-07T11:18:00.505Z,1.00
2022-11-07T11:23:06.974Z,1.75
2022-11-07T11:28:18.436Z,0.75
2022-11-07T11:33:27.867Z,1.00
2022-11-07T11:38:37.397Z,2.50
2022-11-07T11:43:44.965Z,1.25
2022-11-07T11:48:52.386Z,1.00
2022-11-07T11:53:56.425Z,2.00
2022-11-07T11:59:28.159Z,1.00
2022-11-07T12:04:44.163Z,1.50
2022-11-07T12:09:53.320Z,1.00
2022-11-07T12:15:20.962Z,2.00
2022-11-07T12:20:27.892Z,2.00
2022-11-07T12:25:39.266Z,1.00
2022-11-07T12:30:52.938Z,1.00
2022-11-07T12:36:02.329Z,1.00
2022-11-07T12:41:14.268Z,1.50
2022-11-07T12:46:26.710Z,1.75
2022-11-07T12:51:43.599Z,1.00
2022-11-07T12:56:50.241Z,1.00
2022-11-07T13:02:06.780Z,1.00
2022-11-07T13:07:21.869Z,1.00
2022-11-07T13:12:33.970Z,1.00
2022-11-07T13:17:42.066Z,1.00
2022-11-07T13:22:44.723Z,2.00
2022-11-07T13:28:02.936Z,1.50
2022-11-07T13:33:09.045Z,1.25
2022-11-07T13:38:16.332Z,0.00
2022-11-07T13:43:25.194Z,1.00
2022-11-07T13:48:32.134Z,1.25
2022-11-07T13:53:39.758Z,1.00
2022-11-07T13:58:44.696Z,1.00
2022-11-07T14:03:47.306Z,1.00
2022-11-07T14:08:49.906Z,1.00
2022-11-07T14:13:55.076Z,1.00
2022-11-07T14:19:00.938Z,2.00
2022-11-07T14:24:04.234Z,1.00
2022-11-07T14:29:08.701Z,1.00
2022-11-07T14:34:20.376Z,0.25
2022-11-07T14:39:25.554Z,1.00
2022-11-07T14:44:54.065Z,0.75
2022-11-07T14:49:58.053Z,1.00
2022-11-07T14:55:06.265Z,1.00
2022-11-07T15:00:15.793Z,1.00
2022-11-07T15:05:23.434Z,1.00
2022-11-07T15:10:31.295Z,1.50
2022-11-07T15:15:37.251Z,0.00
2022-11-07T15:20:40.806Z,0.75
2022-11-07T15:25:53.612Z,0.00
2022-11-07T15:30:59.745Z,0.75
2022-11-07T15:36:03.059Z,1.00
2022-11-07T15:41:05.808Z,0.00
2022-11-07T15:46:22.002Z,0.00
2022-11-07T15:51:24.797Z,0.50
2022-11-07T15:56:27.667Z,0.25
2022-11-07T16:01:32.272Z,0.75
2022-11-07T16:06:35.593Z,0.75
2022-11-07T16:11:38.313Z,0.00
2022-11-07T16:16:45.254Z,0.00
2022-11-07T16:21:49.152Z,1.00
2022-11-07T16:26:53.305Z,0.75
2022-11-07T16:31:57.392Z,1.00
2022-11-07T16:37:00.077Z,0.00
2022-11-07T16:42:02.914Z,0.00
2022-11-07T16:47:13.357Z,0.00
2022-11-07T16:52:16.861Z,1.00
2022-11-07T16:57:20.304Z,1.25
2022-11-07T17:02:26.397Z,1.00
2022-11-07T17:07:29.135Z,1.00
2022-11-07T17:12:31.859Z,1.00
2022-11-07T17:17:35.870Z,2.00
2022-11-07T17:22:38.464Z,3.00
2022-11-07T17:27:43.162Z,4.00
2022-11-07T17:32:47.350Z,3.00
2022-11-07T17:37:50.063Z,2.25
2022-11-07T17:42:52.794Z,2.25
2022-11-07T17:47:56.864Z,3.00
2022-11-07T17:53:00.467Z,2.00
2022-11-07T17:58:03.067Z,2.50
2022-11-07T18:03:07.295Z,2.00
2022-11-07T18:08:25.045Z,2.00
2022-11-07T18:13:33.281Z,2.00
2022-11-07T18:18:37.734Z,2.00
2022-11-07T18:23:41.668Z,2.75
2022-11-07T18:28:45.104Z,1.75
2022-11-07T18:33:52.384Z,1.00
2022-11-07T18:38:55.011Z,1.25
2022-11-07T18:44:01.792Z,2.00
2022-11-07T18:49:08.806Z,2.00
2022-11-07T18:54:13.700Z,2.00
2022-11-07T18:59:16.534Z,2.00
2022-11-07T19:04:20.505Z,2.00
2022-11-07T19:09:24.546Z,1.75
2022-11-07T19:14:28.146Z,1.50
2022-11-07T19:19:32.157Z,2.25
2022-11-07T19:24:35.523Z,1.50
2022-11-07T19:29:38.189Z,1.00
2022-11-07T19:34:42.961Z,2.00
2022-11-07T19:39:45.579Z,2.00
2022-11-07T19:44:51.676Z,1.00
2022-11-07T19:49:58.153Z,2.00
2022-11-07T19:55:00.936Z,2.00
2022-11-07T20:00:05.015Z,1.50
2022-11-07T20:05:10.332Z,2.00
2022-11-07T20:10:12.899Z,2.00
2022-11-07T20:15:16.105Z,1.00
2022-11-07T20:20:20.361Z,1.00
2022-11-07T20:25:23.377Z,1.00
2022-11-07T20:30:26.032Z,1.00
2022-11-07T20:35:32.430Z,1.25
2022-11-07T20:40:35.071Z,1.00
2022-11-07T20:45:37.775Z,1.00
2022-11-07T20:50:41.777Z,2.00
2022-11-07T20:55:45.087Z,1.25
2022-11-07T21:00:48.043Z,1.00
2022-11-07T21:05:53.546Z,1.00
2022-11-07T21:10:56.512Z,1.50
2022-11-07T21:15:59.223Z,1.00
2022-11-07T21:21:10.905Z,2.00
2022-11-07T21:26:16.463Z,2.00
2022-11-07T21:31:23.568Z,2.75
2022-11-07T21:36:30.433Z,2.00
2022-11-07T21:41:33.153Z,1.25
2022-11-07T21:46:36.046Z,2.00
2022-11-07T21:51:41.163Z,2.25
2022-11-07T21:56:43.917Z,2.00
2022-11-07T22:01:48.668Z,2.00
2022-11-07T22:06:52.939Z,2.00
2022-11-07T22:11:55.714Z,2.00
2022-11-07T22:16:58.376Z,1.00
2022-11-07T22:22:02.340Z,2.25
2022-11-07T22:27:05.415Z,1.00
2022-11-07T22:32:08.045Z,2.00
2022-11-07T22:37:12.078Z,2.00
2022-11-07T22:42:18.440Z,1.50
2022-11-07T22:47:23.750Z,1.25
2022-11-07T22:52:27.723Z,2.75
2022-11-07T22:57:30.592Z,2.00
2022-11-07T23:02:33.503Z,1.00
2022-11-07T23:07:37.696Z,2.00
2022-11-07T23:12:43.968Z,1.75
2022-11-07T23:17:46.703Z,2.00
2022-11-07T23:22:50.709Z,1.75
2022-11-07T23:27:53.271Z,2.75
2022-11-07T23:32:55.924Z,2.00
2022-11-07T23:37:59.984Z,2.75
2022-11-07T23:43:02.710Z,2.00
2022-11-07T23:48:23.357Z,3.00
2022-11-07T23:53:44.759Z,1.75
2022-11-07T23:59:05.373Z,2.00
